Time;durP1;ratioP1;P1;durP2;ratioP2;P2;SDS_P1;SDS_P2;PMS_P1;PMS_P2;Temp;Humidity;BMP_temperature;BMP_pressure;BME280_temperature;BME280_humidity;BME280_pressure;Samples;Min_cycle;Max_cycle;Signal;HPM_P1;HPM_P2
2022/08/27 00:01:42;;;;;;;1.50;0.80;;;;;;;18.57;100.00;101732.47;5024140;28;20203;-71
2022/08/27 00:04:07;;;;;;;2.30;1.20;;;;;;;18.57;100.00;101737.91;5012263;28;20196;-71
2022/08/27 00:06:34;;;;;;;1.63;0.70;;;;;;;18.60;100.00;101734.78;5025584;28;20221;-71
2022/08/27 00:09:00;;;;;;;4.23;1.30;;;;;;;18.69;100.00;101694.50;5013272;28;20565;-71
2022/08/27 00:11:26;;;;;;;5.03;1.53;;;;;;;18.21;100.00;101641.06;5007695;28;20443;-71
2022/08/27 00:13:51;;;;;;;4.90;1.63;;;;;;;18.67;100.00;101715.66;5006921;28;20211;-71
2022/08/27 00:16:17;;;;;;;2.57;1.10;;;;;;;18.37;100.00;101639.59;5026998;28;20261;-71
2022/08/27 00:18:45;;;;;;;1.87;1.03;;;;;;;18.97;100.00;101704.75;5027428;28;20196;-71
2022/08/27 00:21:11;;;;;;;1.93;0.90;;;;;;;18.26;100.00;101611.34;5022772;28;20200;-71
2022/08/27 00:23:37;;;;;;;5.17;1.17;;;;;;;18.72;100.00;101702.19;5024564;28;20450;-71
2022/08/27 00:26:05;;;;;;;3.50;1.13;;;;;;;18.85;100.00;101668.56;5021623;28;20220;-71
2022/08/27 00:28:31;;;;;;;2.87;1.10;;;;;;;19.09;100.00;101710.19;5025054;28;20442;-71
2022/08/27 00:30:56;;;;;;;2.80;1.20;;;;;;;18.51;100.00;101603.00;5006791;28;20811;-71
2022/08/27 00:33:23;;;;;;;2.93;1.33;;;;;;;18.96;100.00;101693.06;5020846;28;20197;-71
2022/08/27 00:35:49;;;;;;;2.43;0.90;;;;;;;18.83;100.00;101659.81;5004736;28;20617;-71
2022/08/27 00:38:16;;;;;;;2.97;1.23;;;;;;;19.09;100.00;101700.19;5025987;28;20558;-71
2022/08/27 00:40:42;;;;;;;7.70;1.20;;;;;;;19.14;100.00;101691.31;5006057;28;20477;-71
2022/08/27 00:43:07;;;;;;;4.23;1.27;;;;;;;18.57;100.00;101637.38;5008009;28;20439;-71
2022/08/27 00:45:38;;;;;;;4.57;1.30;;;;;;;18.45;100.00;101614.81;5023289;28;20192;-71
2022/08/27 00:48:06;;;;;;;2.23;1.10;;;;;;;19.00;100.00;101690.69;5023298;28;20214;-71
2022/08/27 00:50:42;;;;;;;4.23;1.30;;;;;;;18.22;100.00;101594.66;4999684;28;20435;-71
2022/08/27 00:53:12;;;;;;;2.40;1.00;;;;;;;18.83;100.00;101703.31;5024115;28;20498;-71
2022/08/27 00:55:48;;;;;;;6.37;1.40;;;;;;;18.15;100.00;101604.81;5021334;28;20492;-71
2022/08/27 00:58:30;;;;;;;3.60;1.50;;;;;;;18.98;100.00;101701.00;5021306;28;20989;-71
2022/08/27 01:00:58;;;;;;;2.33;1.20;;;;;;;18.40;100.00;101620.09;5004198;28;20472;-71
2022/08/27 01:03:27;;;;;;;3.63;1.30;;;;;;;18.82;100.00;101704.38;5003974;28;20469;-71
2022/08/27 01:05:55;;;;;;;1.57;0.80;;;;;;;18.69;100.00;101649.13;5024102;28;20493;-71
2022/08/27 01:08:25;;;;;;;3.70;1.70;;;;;;;18.95;100.00;101704.19;5018925;28;20482;-72
2022/08/27 01:10:52;;;;;;;3.33;1.20;;;;;;;18.05;100.00;101556.50;5006279;28;20929;-72
2022/08/27 01:13:21;;;;;;;5.03;1.00;;;;;;;18.19;100.00;101581.56;5026469;28;21113;-72
2022/08/27 01:15:48;;;;;;;2.90;1.20;;;;;;;18.44;100.00;101627.56;5027789;28;20945;-72
2022/08/27 01:18:14;;;;;;;3.70;1.47;;;;;;;18.48;100.00;101611.63;5008297;28;20844;-72
2022/08/27 01:21:09;;;;;;;5.13;1.37;;;;;;;19.09;100.00;101702.03;5023531;28;20960;-72
2022/08/27 01:24:00;;;;;;;2.90;1.20;;;;;;;18.97;100.00;101691.97;4994186;28;21646;-72
2022/08/27 01:26:27;;;;;;;5.70;1.40;;;;;;;18.54;100.00;101627.00;5008153;28;20467;-72
2022/08/27 01:28:53;;;;;;;2.40;1.00;;;;;;;19.03;100.00;101695.66;5022461;28;20450;-72
2022/08/27 01:31:19;;;;;;;4.40;1.10;;;;;;;18.97;100.00;101705.56;5025956;28;20443;-72
2022/08/27 01:34:00;;;;;;;3.00;1.30;;;;;;;18.99;100.00;101702.63;5020174;28;20192;-72
2022/08/27 01:36:27;;;;;;;2.50;1.17;;;;;;;18.99;100.00;101704.53;5022524;28;20204;-72
2022/08/27 01:38:53;;;;;;;4.50;1.33;;;;;;;18.90;100.00;101674.97;5001539;28;20501;-72
2022/08/27 01:41:19;;;;;;;3.13;1.10;;;;;;;18.34;100.00;101618.31;5023343;28;20450;-72
2022/08/27 01:43:45;;;;;;;2.27;1.17;;;;;;;18.50;100.00;101623.09;5005174;28;20208;-72
2022/08/27 01:46:10;;;;;;;4.20;1.20;;;;;;;18.66;100.00;101668.63;5023955;28;20536;-72
2022/08/27 01:48:36;;;;;;;6.07;1.43;;;;;;;18.91;100.00;101703.78;5014303;28;20191;-72
2022/08/27 01:51:01;;;;;;;3.77;1.90;;;;;;;19.05;100.00;101712.56;5001663;28;20222;-71
2022/08/27 01:53:27;;;;;;;5.00;1.30;;;;;;;18.13;100.00;101595.22;5012218;28;20543;-71
2022/08/27 01:55:53;;;;;;;3.87;1.47;;;;;;;18.91;100.00;101702.97;5023008;28;20184;-72
2022/08/27 01:58:22;;;;;;;4.67;1.20;;;;;;;18.89;100.00;101694.22;5023718;28;20242;-72
2022/08/27 02:00:50;;;;;;;3.00;1.20;;;;;;;18.86;100.00;101703.69;5022175;28;20479;-71
2022/08/27 02:03:19;;;;;;;3.57;1.30;;;;;;;18.87;100.00;101704.50;5002139;28;20531;-72
2022/08/27 02:05:46;;;;;;;3.07;1.10;;;;;;;18.33;100.00;101625.66;5022232;28;20449;-72
2022/08/27 02:08:14;;;;;;;7.80;1.57;;;;;;;17.96;100.00;101567.91;5020539;28;20509;-72
2022/08/27 02:10:41;;;;;;;2.60;1.33;;;;;;;18.37;100.00;101609.69;5004628;28;20530;-72
2022/08/27 02:13:07;;;;;;;3.00;1.20;;;;;;;18.53;100.00;101647.06;5021242;28;21021;-72
2022/08/27 02:15:35;;;;;;;1.60;1.10;;;;;;;18.86;100.00;101702.84;5023212;28;20439;-72
2022/08/27 02:18:00;;;;;;;4.07;1.53;;;;;;;17.95;100.00;101594.22;4999315;28;20470;-72
2022/08/27 02:20:26;;;;;;;4.67;1.27;;;;;;;18.14;100.00;101608.59;5005999;28;20528;-72
2022/08/27 02:22:52;;;;;;;1.10;0.93;;;;;;;18.61;100.00;101706.53;5005052;28;20180;-72
2022/08/27 02:25:20;;;;;;;3.20;1.10;;;;;;;18.22;100.00;101632.69;5020794;28;20443;-72
2022/08/27 02:27:47;;;;;;;3.47;1.27;;;;;;;18.17;100.00;101613.56;5001874;28;20330;-72
2022/08/27 02:30:17;;;;;;;2.87;1.50;;;;;;;18.74;100.00;101703.63;5026628;28;20715;-72
2022/08/27 02:32:46;;;;;;;4.03;1.80;;;;;;;18.77;100.00;101696.91;5004919;28;20546;-72
2022/08/27 02:35:12;;;;;;;2.50;1.17;;;;;;;18.59;100.00;101702.38;5004493;28;20454;-72
2022/08/27 02:37:38;;;;;;;5.03;2.07;;;;;;;18.15;100.00;101620.28;5024266;28;20525;-72
2022/08/27 02:40:05;;;;;;;3.00;1.30;;;;;;;17.67;100.00;101569.50;5021129;28;20935;-72
2022/08/27 02:42:31;;;;;;;2.60;1.30;;;;;;;18.35;100.00;101690.59;5002840;28;20192;-72
2022/08/27 02:44:56;;;;;;;3.83;1.13;;;;;;;18.07;100.00;101640.41;5003953;28;20439;-72
2022/08/27 02:47:22;;;;;;;4.87;1.50;;;;;;;18.37;100.00;101683.03;5003875;28;20212;-72
2022/08/27 02:49:48;;;;;;;3.93;1.53;;;;;;;18.35;100.00;101701.47;5024259;28;20676;-72
2022/08/27 02:52:14;;;;;;;2.03;0.90;;;;;;;18.12;100.00;101667.72;5004850;28;20192;-72
2022/08/27 02:54:40;;;;;;;4.20;1.17;;;;;;;17.67;100.00;101600.19;5003940;28;20500;-72
2022/08/27 02:57:05;;;;;;;2.03;1.23;;;;;;;18.19;100.00;101676.59;5022273;28;20541;-72
2022/08/27 02:59:30;;;;;;;1.40;1.00;;;;;;;18.28;100.00;101701.53;5002146;28;20672;-72
2022/08/27 03:01:56;;;;;;;1.63;1.10;;;;;;;18.13;100.00;101707.38;5022014;28;20184;-72
2022/08/27 03:04:22;;;;;;;2.40;1.13;;;;;;;17.54;100.00;101598.47;5020628;28;20188;-72
2022/08/27 03:06:47;;;;;;;2.83;1.10;;;;;;;18.16;100.00;101701.47;5010219;28;20285;-72
2022/08/27 03:09:13;;;;;;;3.30;1.30;;;;;;;18.14;100.00;101681.03;5013111;28;21065;-72
2022/08/27 03:11:39;;;;;;;4.87;1.63;;;;;;;18.42;100.00;101691.31;5023628;28;20188;-71
2022/08/27 03:14:05;;;;;;;5.77;2.03;;;;;;;17.98;100.00;101620.91;5008955;28;20220;-72
2022/08/27 03:16:34;;;;;;;3.93;1.03;;;;;;;17.91;100.00;101613.94;5017841;28;20465;-72
2022/08/27 03:18:59;;;;;;;4.67;1.30;;;;;;;17.83;100.00;101644.91;5003140;28;20192;-72
2022/08/27 03:21:25;;;;;;;2.63;1.47;;;;;;;18.18;100.00;101706.69;5020985;28;20842;-72
2022/08/27 03:23:51;;;;;;;4.10;1.20;;;;;;;18.43;100.00;101698.44;5021808;28;20191;-72
2022/08/27 03:26:18;;;;;;;3.23;1.20;;;;;;;18.41;100.00;101692.41;5023732;28;20467;-69
2022/08/27 03:28:44;;;;;;;3.63;1.20;;;;;;;18.47;100.00;101688.75;5049091;22;20486;-74
2022/08/27 03:31:19;;;;;;;3.30;1.37;;;;;;;18.49;100.00;101697.50;5045007;28;20629;-74
2022/08/27 03:33:45;;;;;;;3.20;1.10;;;;;;;18.18;100.00;101663.25;5045274;28;20193;-74
2022/08/27 03:36:10;;;;;;;2.47;1.10;;;;;;;17.88;100.00;101622.50;5047067;28;20525;-74
2022/08/27 03:38:36;;;;;;;3.00;1.00;;;;;;;18.23;100.00;101701.41;5047725;28;20257;-74
2022/08/27 03:41:03;;;;;;;3.00;1.30;;;;;;;17.95;100.00;101643.06;5045954;28;20216;-74
2022/08/27 03:43:28;;;;;;;2.80;1.40;;;;;;;18.52;100.00;101691.63;5045276;28;20499;-74
2022/08/27 03:45:54;;;;;;;2.57;1.30;;;;;;;18.15;100.00;101671.88;5045370;28;20791;-74
2022/08/27 03:48:19;;;;;;;3.17;1.27;;;;;;;18.28;100.00;101686.09;5047570;28;20222;-74
2022/08/27 03:50:48;;;;;;;1.67;1.00;;;;;;;18.56;100.00;101700.13;5039492;28;20188;-74
2022/08/27 03:53:15;;;;;;;3.80;1.30;;;;;;;18.56;100.00;101692.81;5044863;28;20332;-74
2022/08/27 03:55:41;;;;;;;3.00;1.30;;;;;;;18.43;100.00;101691.13;5047068;28;20542;-74
2022/08/27 03:58:11;;;;;;;1.70;1.10;;;;;;;18.44;100.00;101698.19;5044821;28;20454;-74
2022/08/27 04:00:37;;;;;;;4.27;1.43;;;;;;;18.21;100.00;101639.19;5045341;28;20998;-74
2022/08/27 04:03:04;;;;;;;2.70;1.23;;;;;;;18.51;100.00;101689.94;5046243;28;20806;-74
2022/08/27 04:05:30;;;;;;;2.13;1.10;;;;;;;18.52;100.00;101692.44;5043565;28;20514;-74
2022/08/27 04:07:56;;;;;;;4.13;1.30;;;;;;;18.36;100.00;101660.47;5048106;28;20470;-74
2022/08/27 04:10:21;;;;;;;2.17;1.00;;;;;;;18.43;100.00;101690.28;5028866;28;20449;-74
2022/08/27 04:12:47;;;;;;;2.23;1.13;;;;;;;18.25;100.00;101694.69;5047806;28;20187;-74
2022/08/27 04:15:13;;;;;;;3.80;1.30;;;;;;;18.27;100.00;101695.28;5046001;28;20801;-74
2022/08/27 04:17:39;;;;;;;3.80;1.77;;;;;;;18.36;100.00;101695.78;5046052;28;20683;-74
2022/08/27 04:20:07;;;;;;;2.43;1.37;;;;;;;18.21;100.00;101666.34;5044815;28;20801;-74
2022/08/27 04:22:32;;;;;;;3.60;1.20;;;;;;;18.38;100.00;101684.72;5042671;28;20442;-74
2022/08/27 04:24:58;;;;;;;5.23;1.27;;;;;;;18.41;100.00;101695.13;5043621;28;21041;-74
2022/08/27 04:27:25;;;;;;;3.87;1.40;;;;;;;18.36;100.00;101698.50;5046864;28;20233;-74
2022/08/27 04:29:57;;;;;;;4.77;1.63;;;;;;;18.06;100.00;101661.31;5047969;28;20188;-73
2022/08/27 04:32:24;;;;;;;3.60;1.17;;;;;;;18.27;100.00;101692.56;5010104;28;20430;-75
2022/08/27 04:34:53;;;;;;;4.40;0.93;;;;;;;18.33;100.00;101698.16;5036292;28;20803;-74
2022/08/27 04:37:19;;;;;;;4.20;1.40;;;;;;;18.21;100.00;101673.66;5032936;28;21064;-74
2022/08/27 04:39:44;;;;;;;1.73;1.10;;;;;;;18.28;100.00;101682.53;5029913;28;20561;-74
2022/08/27 04:42:10;;;;;;;3.23;1.33;;;;;;;18.02;100.00;101659.25;5023434;28;20207;-73
2022/08/27 04:44:35;;;;;;;1.73;1.20;;;;;;;18.23;100.00;101683.22;5038338;28;20261;-73
2022/08/27 04:47:03;;;;;;;1.87;1.00;;;;;;;18.10;100.00;101679.84;5037076;28;20776;-73
2022/08/27 04:49:29;;;;;;;4.57;1.40;;;;;;;18.19;100.00;101682.00;5039007;28;20214;-73
2022/08/27 04:51:55;;;;;;;3.23;1.23;;;;;;;18.23;100.00;101688.66;5035985;28;20827;-73
2022/08/27 04:54:21;;;;;;;6.57;1.20;;;;;;;18.14;100.00;101711.75;5039830;28;20491;-74
2022/08/27 04:56:47;;;;;;;6.63;1.13;;;;;;;17.39;100.00;101573.63;5019506;28;20493;-74
2022/08/27 04:59:13;;;;;;;4.17;1.53;;;;;;;17.76;100.00;101665.81;5032984;28;20493;-74
2022/08/27 05:01:40;;;;;;;2.87;1.13;;;;;;;17.83;100.00;101674.75;5037844;28;20218;-73
2022/08/27 05:04:06;;;;;;;2.73;1.33;;;;;;;17.79;100.00;101671.69;5018233;28;20446;-74
2022/08/27 05:06:33;;;;;;;3.73;1.30;;;;;;;17.65;100.00;101658.44;5032632;28;20481;-74
2022/08/27 05:08:58;;;;;;;3.00;1.20;;;;;;;17.90;100.00;101682.81;5025758;28;20446;-73
2022/08/27 05:11:30;;;;;;;3.83;1.27;;;;;;;18.04;100.00;101692.44;5036623;28;20485;-73
2022/08/27 05:13:57;;;;;;;4.57;1.83;;;;;;;17.96;100.00;101692.75;5039370;28;20271;-71
2022/08/27 05:16:23;;;;;;;4.27;1.27;;;;;;;17.70;100.00;101700.09;5016170;28;20446;-71
2022/08/27 05:18:50;;;;;;;3.67;1.57;;;;;;;17.00;100.00;101600.06;5031450;28;20492;-71
2022/08/27 05:21:23;;;;;;;2.70;1.20;;;;;;;17.47;100.00;101695.34;5040046;28;20211;-71
2022/08/27 05:23:49;;;;;;;2.93;1.40;;;;;;;17.39;100.00;101660.38;5020833;28;20445;-74
2022/08/27 05:26:15;;;;;;;3.60;1.20;;;;;;;17.89;100.00;101686.59;5038853;28;20441;-72
2022/08/27 05:28:40;;;;;;;2.87;1.17;;;;;;;17.71;100.00;101706.38;5046849;28;20506;-72
2022/08/27 05:31:09;;;;;;;3.67;1.20;;;;;;;17.74;100.00;101705.94;5047509;28;20236;-72
2022/08/27 05:33:37;;;;;;;7.60;1.47;;;;;;;16.98;100.00;101593.22;5050182;28;20184;-72
2022/08/27 05:36:04;;;;;;;3.37;1.73;;;;;;;17.26;100.00;101631.50;5030021;28;20438;-74
2022/08/27 05:38:31;;;;;;;2.83;1.70;;;;;;;17.72;100.00;101706.16;5044471;28;20481;-71
2022/08/27 05:41:08;;;;;;;3.23;1.47;;;;;;;17.45;100.00;101692.03;5023914;28;20473;-71
2022/08/27 05:43:35;;;;;;;3.50;1.47;;;;;;;17.59;100.00;101712.56;5045601;28;20562;-71
2022/08/27 05:46:05;;;;;;;4.53;1.37;;;;;;;17.04;100.00;101617.56;5048031;28;20452;-71
2022/08/27 05:48:32;;;;;;;5.40;1.50;;;;;;;17.63;100.00;101716.47;5047501;28;20812;-71
2022/08/27 05:51:08;;;;;;;3.73;1.73;;;;;;;17.62;100.00;101714.00;5046728;28;20430;-71
2022/08/27 05:53:33;;;;;;;5.30;1.50;;;;;;;17.67;100.00;101714.13;5029846;28;20503;-71
2022/08/27 05:55:59;;;;;;;3.77;1.40;;;;;;;17.73;100.00;101712.41;5046114;28;20450;-71
2022/08/27 06:01:09;;;;;;;3.03;1.07;;;;;;;17.66;100.00;101677.22;5049324;28;20484;-71
2022/08/27 06:03:36;;;;;;;4.70;1.30;;;;;;;17.80;100.00;101676.03;5049777;28;20426;-71
2022/08/27 06:06:07;;;;;;;4.70;1.53;;;;;;;18.11;100.00;101708.66;5047368;28;20262;-71
2022/08/27 06:08:34;;;;;;;5.77;1.17;;;;;;;17.43;100.00;101620.09;5045918;28;20466;-71
2022/08/27 06:11:00;;;;;;;4.70;1.53;;;;;;;17.59;100.00;101655.59;5044607;28;20487;-71
2022/08/27 06:13:27;;;;;;;3.73;1.27;;;;;;;18.26;100.00;101712.66;5044912;28;20481;-71
2022/08/27 06:16:08;;;;;;;2.30;1.10;;;;;;;18.27;100.00;101710.75;5027401;28;20899;-72
2022/08/27 06:18:35;;;;;;;5.47;1.50;;;;;;;18.26;100.00;101714.53;5045601;28;20501;-72
2022/08/27 06:21:00;;;;;;;3.27;1.40;;;;;;;17.19;100.00;101549.44;5041598;28;20734;-72
2022/08/27 06:23:27;;;;;;;2.87;1.30;;;;;;;18.32;100.00;101710.91;5040977;28;20500;-72
2022/08/27 06:25:53;;;;;;;2.87;1.20;;;;;;;18.45;100.00;101718.84;5046854;28;20253;-71
2022/08/27 06:28:23;;;;;;;5.07;1.63;;;;;;;18.43;100.00;101725.59;5028820;28;20477;-72
2022/08/27 06:30:48;;;;;;;2.43;0.80;;;;;;;18.23;100.00;101721.25;5047794;28;20291;-72
2022/08/27 06:33:14;;;;;;;5.80;1.50;;;;;;;18.38;100.00;101739.03;5047364;28;20446;-72
2022/08/27 06:35:39;;;;;;;5.40;1.50;;;;;;;18.16;100.00;101733.25;5029195;28;20191;-72
2022/08/27 06:38:06;;;;;;;3.30;1.20;;;;;;;18.33;100.00;101741.59;5048454;28;20581;-72
2022/08/27 06:40:31;;;;;;;3.80;1.10;;;;;;;18.41;100.00;101738.56;5049448;28;20203;-72
2022/08/27 06:42:57;;;;;;;3.07;1.40;;;;;;;18.06;100.00;101666.75;5045753;28;20450;-72
2022/08/27 06:45:22;;;;;;;6.03;1.53;;;;;;;18.60;100.00;101728.47;5044796;28;20615;-72
2022/08/27 06:47:47;;;;;;;4.90;1.50;;;;;;;18.78;100.00;101739.34;5047313;28;20227;-71
2022/08/27 06:50:13;;;;;;;3.83;1.30;;;;;;;18.65;100.00;101715.03;5045888;28;20213;-72
2022/08/27 06:52:38;;;;;;;4.07;1.83;;;;;;;18.66;100.00;101742.00;5044502;28;20195;-72
2022/08/27 06:55:04;;;;;;;2.60;1.33;;;;;;;18.61;100.00;101741.84;5049813;28;20176;-72
2022/08/27 06:57:30;;;;;;;2.00;1.10;;;;;;;18.35;100.00;101687.88;5048492;28;20200;-72
2022/08/27 06:59:55;;;;;;;1.77;0.97;;;;;;;18.71;100.00;101750.25;5046511;28;20461;-73
2022/08/27 07:02:21;;;;;;;6.63;1.50;;;;;;;18.07;100.00;101622.25;5050830;28;20555;-72
2022/08/27 07:04:46;;;;;;;5.13;1.60;;;;;;;18.99;100.00;101750.75;5048244;28;20199;-72
2022/08/27 07:07:12;;;;;;;3.23;1.00;;;;;;;18.87;100.00;101759.69;5049381;28;20196;-72
2022/08/27 07:09:38;;;;;;;3.90;1.37;;;;;;;18.85;100.00;101744.69;5050862;28;20194;-72
2022/08/27 07:12:05;;;;;;;4.63;1.47;;;;;;;18.89;100.00;101748.56;5052363;28;20803;-72
2022/08/27 07:14:32;;;;;;;3.50;1.60;;;;;;;19.10;100.00;101741.78;5053397;28;20187;-72
2022/08/27 07:16:58;;;;;;;2.37;1.20;;;;;;;19.40;100.00;101738.97;5048866;28;20465;-73
2022/08/27 07:19:24;;;;;;;4.67;1.13;;;;;;;19.34;100.00;101738.03;5049771;28;20500;-73
2022/08/27 07:21:49;;;;;;;4.47;1.83;;;;;;;18.89;100.00;101680.63;5050980;28;20437;-72
2022/08/27 07:24:15;;;;;;;3.77;1.30;;;;;;;19.16;100.00;101746.28;5050597;28;20791;-72
2022/08/27 07:26:42;;;;;;;5.13;1.63;;;;;;;19.16;100.00;101732.69;5050536;28;20290;-72
2022/08/27 07:29:10;;;;;;;4.63;1.63;;;;;;;19.10;100.00;101701.00;5050281;28;20183;-72
2022/08/27 07:31:37;;;;;;;3.93;1.30;;;;;;;19.29;100.00;101701.72;5051625;28;20812;-72
2022/08/27 07:34:04;;;;;;;2.40;1.00;;;;;;;19.33;100.00;101705.63;5048918;28;20434;-73
2022/08/27 07:36:30;;;;;;;4.03;1.17;;;;;;;19.60;100.00;101747.63;5051870;28;20430;-73
2022/08/27 07:38:56;;;;;;;3.83;1.50;;;;;;;19.27;100.00;101663.06;5051930;28;20491;-74
2022/08/27 07:41:22;;;;;;;3.67;1.30;;;;;;;19.75;100.00;101739.00;5048801;28;20594;-75
2022/08/27 07:46:31;;;;;;;3.50;1.40;;;;;;;19.63;100.00;101736.25;5051955;28;20186;-74
2022/08/27 07:48:58;;;;;;;4.03;1.20;;;;;;;18.87;100.00;101626.50;5048571;28;20441;-74
2022/08/27 07:51:26;;;;;;;2.30;1.03;;;;;;;18.27;100.00;101551.34;5047359;28;20351;-74
2022/08/27 07:53:53;;;;;;;5.70;1.63;;;;;;;19.74;100.00;101752.88;5049726;28;20446;-74
2022/08/27 07:56:19;;;;;;;4.23;1.23;;;;;;;19.51;100.00;101740.88;5048631;28;20532;-74
2022/08/27 07:58:45;;;;;;;3.83;1.10;;;;;;;19.47;100.00;101744.28;5049911;28;20485;-73
2022/08/27 08:01:11;;;;;;;4.30;1.00;;;;;;;19.45;100.00;101771.75;5052450;28;20463;-74
2022/08/27 08:03:36;;;;;;;4.73;1.30;;;;;;;19.15;100.00;101747.34;5048399;28;20795;-74
2022/08/27 08:06:10;;;;;;;5.17;2.00;;;;;;;19.37;100.00;101755.78;5049498;28;20188;-74
2022/08/27 08:08:39;;;;;;;3.83;1.40;;;;;;;19.44;100.00;101753.78;5031148;28;20754;-74
2022/08/27 08:11:06;;;;;;;4.33;1.30;;;;;;;19.16;100.00;101700.06;5046767;28;20488;-74
2022/08/27 08:13:31;;;;;;;3.90;1.10;;;;;;;19.76;100.00;101758.88;5051436;28;20492;-74
2022/08/27 08:15:58;;;;;;;5.10;1.17;;;;;;;19.90;100.00;101743.94;5052641;28;20418;-74
2022/08/27 08:18:24;;;;;;;3.40;1.17;;;;;;;19.60;100.00;101701.34;5047284;28;20210;-74
2022/08/27 08:20:50;;;;;;;3.43;1.00;;;;;;;19.94;100.00;101727.97;5051023;28;20462;-74
2022/08/27 08:23:15;;;;;;;3.03;1.27;;;;;;;19.39;100.00;101651.09;5032108;28;20467;-74
2022/08/27 08:25:41;;;;;;;3.53;1.00;;;;;;;19.77;100.00;101752.38;5047994;28;20246;-75
2022/08/27 08:28:07;;;;;;;3.43;1.20;;;;;;;19.66;100.00;101755.94;5032877;28;20281;-74
2022/08/27 08:30:33;;;;;;;3.80;1.17;;;;;;;19.68;100.00;101754.63;5052088;28;20195;-74
2022/08/27 08:32:58;;;;;;;3.37;1.00;;;;;;;19.50;100.00;101732.94;5049977;28;20931;-74
2022/08/27 08:35:24;;;;;;;2.87;1.07;;;;;;;19.52;100.00;101741.69;5047596;28;20449;-74
2022/08/27 08:37:50;;;;;;;2.50;1.00;;;;;;;19.94;100.00;101752.50;5052335;28;20215;-74
2022/08/27 08:40:40;;;;;;;3.43;1.30;;;;;;;19.68;100.00;101711.09;5050699;28;20465;-74
2022/08/27 08:43:25;;;;;;;3.60;1.00;;;;;;;20.03;100.00;101740.97;5050329;28;20214;-74
2022/08/27 08:45:53;;;;;;;7.00;1.30;;;;;;;19.82;100.00;101733.44;5048452;28;20430;-74
2022/08/27 08:48:21;;;;;;;3.30;1.50;;;;;;;18.99;100.00;101610.19;5048792;28;20601;-74
2022/08/27 08:51:30;;;;;;;2.00;0.87;;;;;;;20.00;100.00;101763.25;5048566;28;20491;-74
2022/08/27 08:54:02;;;;;;;2.57;1.20;;;;;;;19.96;100.00;101780.28;4967047;28;20460;-74
2022/08/27 08:56:41;;;;;;;3.07;1.10;;;;;;;20.08;100.00;101770.22;4969640;28;20426;-74
2022/08/27 08:59:14;;;;;;;4.80;1.37;;;;;;;20.16;100.00;101769.81;5019535;28;20433;-74
2022/08/27 09:01:41;;;;;;;2.90;1.13;;;;;;;20.01;100.00;101717.78;5050478;28;20496;-74
2022/08/27 09:04:10;;;;;;;2.43;1.13;;;;;;;20.26;100.00;101750.16;5048336;28;20461;-74
2022/08/27 09:06:35;;;;;;;2.50;1.20;;;;;;;20.62;100.00;101759.88;5049043;28;20434;-75
2022/08/27 09:09:21;;;;;;;3.33;1.30;;;;;;;20.72;100.00;101772.91;5050944;28;20430;-74
2022/08/27 09:12:18;;;;;;;2.90;1.20;;;;;;;20.36;100.00;101772.16;5049341;28;20190;-74
2022/08/27 09:15:02;;;;;;;2.80;1.30;;;;;;;20.24;100.00;101768.63;5045230;28;20842;-74
2022/08/27 09:17:27;;;;;;;2.47;1.40;;;;;;;20.16;100.00;101736.31;5049827;28;20442;-74
2022/08/27 09:19:53;;;;;;;3.40;1.00;;;;;;;20.16;100.00;101739.03;5046927;28;20471;-74
2022/08/27 09:22:30;;;;;;;4.60;1.33;;;;;;;20.08;100.00;101716.56;5049150;28;20233;-75
2022/08/27 09:25:10;;;;;;;4.73;1.80;;;;;;;20.25;100.00;101773.84;5047667;28;20241;-74
2022/08/27 09:27:40;;;;;;;3.13;1.30;;;;;;;19.89;100.00;101734.13;5050042;28;20519;-74
2022/08/27 09:30:10;;;;;;;4.50;1.20;;;;;;;19.53;100.00;101676.19;5047937;28;20442;-74
2022/08/27 09:32:38;;;;;;;5.60;1.70;;;;;;;19.88;100.00;101732.50;5045934;28;20441;-74
2022/08/27 09:35:08;;;;;;;3.77;1.37;;;;;;;20.21;100.00;101763.66;5046909;28;20449;-74
2022/08/27 09:37:43;;;;;;;5.13;1.37;;;;;;;20.44;100.00;101790.03;5049171;28;20454;-74
2022/08/27 09:40:22;;;;;;;2.83;0.90;;;;;;;20.23;100.00;101769.72;5048893;28;20453;-74
2022/08/27 09:42:52;;;;;;;2.97;1.20;;;;;;;19.82;100.00;101698.06;5047395;28;20862;-74
2022/08/27 09:45:26;;;;;;;3.90;1.60;;;;;;;20.36;100.00;101774.88;5048761;28;20431;-74
2022/08/27 09:47:54;;;;;;;3.90;1.40;;;;;;;20.61;100.00;101790.13;5046255;28;20518;-74
2022/08/27 09:50:30;;;;;;;2.90;1.47;;;;;;;20.56;100.00;101757.31;5049125;28;21006;-74
2022/08/27 09:52:59;;;;;;;6.43;1.40;;;;;;;19.91;100.00;101714.84;5024158;28;20434;-74
2022/08/27 09:55:29;;;;;;;5.20;1.20;;;;;;;20.44;100.00;101763.59;5050210;28;20520;-74
2022/08/27 09:57:55;;;;;;;4.43;1.50;;;;;;;20.15;100.00;101730.06;5048162;28;20886;-74
2022/08/27 10:00:34;;;;;;;4.50;1.17;;;;;;;20.13;100.00;101726.72;5048972;28;20478;-74
2022/08/27 10:03:02;;;;;;;4.20;1.23;;;;;;;20.49;100.00;101777.34;5047751;28;20438;-74
2022/08/27 10:05:34;;;;;;;3.90;1.60;;;;;;;20.49;100.00;101781.97;5043963;28;20473;-74
2022/08/27 10:08:12;;;;;;;2.90;1.20;;;;;;;20.39;100.00;101782.56;5047628;28;20446;-74
2022/08/27 10:10:48;;;;;;;4.07;1.33;;;;;;;20.26;100.00;101763.78;5048884;28;20476;-74
2022/08/27 10:13:39;;;;;;;2.40;1.03;;;;;;;20.52;100.00;101781.47;5045748;28;20477;-74
2022/08/27 10:16:23;;;;;;;4.70;1.20;;;;;;;20.46;100.00;101793.34;5044768;28;20441;-74
2022/08/27 10:18:57;;;;;;;3.50;1.10;;;;;;;20.68;100.00;101788.88;5047979;28;20442;-74
2022/08/27 10:21:47;;;;;;;4.53;1.10;;;;;;;20.82;100.00;101774.97;5049727;28;20461;-75
2022/08/27 10:24:24;;;;;;;1.87;0.90;;;;;;;20.78;100.00;101785.56;5047364;28;20522;-74
2022/08/27 10:27:11;;;;;;;2.80;1.00;;;;;;;21.20;100.00;101785.19;5026295;28;20438;-74
2022/08/27 10:29:56;;;;;;;3.60;1.10;;;;;;;21.73;100.00;101780.34;5043148;28;20442;-74
2022/08/27 10:32:32;;;;;;;5.50;1.93;;;;;;;21.71;100.00;101779.75;5044234;28;20950;-74
2022/08/27 10:35:11;;;;;;;2.60;1.20;;;;;;;20.87;100.00;101698.72;5047973;28;20782;-75
2022/08/27 10:38:01;;;;;;;3.47;1.13;;;;;;;21.20;100.00;101783.31;5050112;28;20816;-74
2022/08/27 10:40:33;;;;;;;3.17;1.33;;;;;;;20.75;100.00;101773.22;5030440;28;20862;-75
2022/08/27 10:43:30;;;;;;;3.53;1.03;;;;;;;21.10;100.00;101787.75;5047345;28;20442;-74
2022/08/27 10:46:26;;;;;;;4.57;1.33;;;;;;;21.13;100.00;101781.81;5047586;28;20402;-74
2022/08/27 10:49:21;;;;;;;3.20;0.90;;;;;;;21.55;100.00;101781.41;5046614;28;20977;-72
2022/08/27 10:52:08;;;;;;;2.83;1.17;;;;;;;21.14;100.00;101780.72;5048530;28;20949;-72
2022/08/27 10:54:56;;;;;;;5.23;1.60;;;;;;;21.24;100.00;101785.56;5046290;28;20415;-73
2022/08/27 10:57:36;;;;;;;1.17;0.87;;;;;;;21.66;100.00;101775.88;5048021;28;20461;-73
2022/08/27 11:00:12;;;;;;;2.47;1.10;;;;;;;21.85;100.00;101778.34;5046734;28;20830;-73
2022/08/27 11:02:42;;;;;;;1.77;1.07;;;;;;;21.13;100.00;101651.69;5047044;28;20867;-73
2022/08/27 11:05:45;;;;;;;5.60;1.33;;;;;;;21.25;100.00;101760.72;5026721;28;20450;-73
2022/08/27 11:08:36;;;;;;;4.10;1.10;;;;;;;21.31;100.00;101764.38;5006755;28;20434;-72
2022/08/27 11:11:10;;;;;;;3.03;1.00;;;;;;;21.23;100.00;101784.69;5045728;28;20456;-73
2022/08/27 11:13:45;;;;;;;3.93;1.40;;;;;;;21.69;100.00;101777.28;5049901;28;20429;-73
2022/08/27 11:16:19;;;;;;;4.10;1.10;;;;;;;21.46;100.00;101785.66;5047429;28;20457;-73
2022/08/27 11:18:55;;;;;;;2.60;1.00;;;;;;;21.10;100.00;101791.31;5043982;28;20500;-74
2022/08/27 11:21:33;;;;;;;2.77;1.20;;;;;;;21.13;100.00;101784.53;5046327;28;20483;-74
2022/08/27 11:24:13;;;;;;;5.00;1.37;;;;;;;21.48;100.00;101791.69;5048589;28;20792;-73
2022/08/27 11:26:40;;;;;;;3.80;1.30;;;;;;;21.74;100.00;101760.16;5049468;28;20516;-74
2022/08/27 11:29:17;;;;;;;2.57;0.80;;;;;;;21.69;100.00;101747.25;5047227;28;20593;-74
2022/08/27 11:32:19;;;;;;;1.37;1.00;;;;;;;21.93;100.00;101774.31;5045586;28;20524;-74
2022/08/27 11:34:58;;;;;;;3.53;1.33;;;;;;;21.16;100.00;101718.56;5047710;28;20980;-74